createdAt,value
2019-05-09T00:02:24.363Z,99.90
2019-05-09T00:04:53.328Z,99.90
2019-05-09T00:07:23.308Z,99.90
2019-05-09T00:09:53.350Z,99.90
2019-05-09T00:12:23.428Z,99.90
2019-05-09T00:14:53.959Z,99.90
2019-05-09T00:17:23.317Z,99.90
2019-05-09T00:19:53.912Z,99.90
2019-05-09T00:22:23.997Z,99.90
2019-05-09T00:24:53.925Z,99.90
2019-05-09T00:27:23.129Z,99.90
2019-05-09T00:29:53.216Z,99.90
2019-05-09T00:32:34.106Z,99.90
2019-05-09T00:35:04.434Z,99.90
2019-05-09T00:37:50.943Z,99.90
2019-05-09T00:40:25.437Z,99.90
2019-05-09T00:42:54.922Z,99.90
2019-05-09T00:45:37.519Z,99.90
2019-05-09T00:48:06.843Z,99.90
2019-05-09T00:50:35.394Z,99.90
2019-05-09T00:53:03.806Z,99.90
2019-05-09T00:55:33.242Z,99.90
2019-05-09T00:58:04.043Z,99.90
2019-05-09T01:00:33.322Z,99.90
2019-05-09T01:03:03.589Z,99.90
2019-05-09T01:05:38.984Z,99.90
2019-05-09T01:08:27.069Z,99.90
2019-05-09T01:11:08.514Z,99.90
2019-05-09T01:13:25.697Z,99.90
2019-05-09T01:15:54.956Z,99.90
2019-05-09T01:18:23.777Z,99.90
2019-05-09T01:20:53.129Z,99.90
2019-05-09T01:23:23.426Z,99.90
2019-05-09T01:25:52.978Z,99.90
2019-05-09T01:28:23.203Z,99.90
2019-05-09T01:30:57.410Z,99.90
2019-05-09T01:33:29.001Z,99.90
2019-05-09T01:35:57.422Z,99.90
2019-05-09T01:38:26.138Z,99.90
2019-05-09T01:40:55.316Z,99.90
2019-05-09T01:43:24.417Z,99.90
2019-05-09T01:45:54.257Z,99.90
2019-05-09T01:48:23.472Z,99.90
2019-05-09T01:50:53.774Z,99.90
2019-05-09T01:53:27.054Z,99.90
2019-05-09T01:56:03.448Z,99.90
2019-05-09T01:58:34.203Z,99.90
2019-05-09T02:01:04.984Z,99.90
2019-05-09T02:03:33.902Z,99.90
2019-05-09T02:06:06.466Z,99.90
2019-05-09T02:08:34.948Z,99.90
2019-05-09T02:11:04.001Z,99.90
2019-05-09T02:13:44.355Z,99.90
2019-05-09T02:16:23.518Z,99.90
2019-05-09T02:18:56.644Z,99.90
2019-05-09T02:21:25.080Z,99.90
2019-05-09T02:23:53.793Z,99.90
2019-05-09T02:26:23.999Z,99.90
2019-05-09T02:28:53.842Z,99.90
2019-05-09T02:31:24.478Z,99.90
2019-05-09T02:33:54.219Z,99.90
2019-05-09T02:36:23.012Z,99.90
2019-05-09T02:38:51.433Z,99.90
2019-05-09T02:41:20.287Z,99.90
2019-05-09T02:43:49.819Z,99.90
2019-05-09T02:46:20.176Z,99.90
2019-05-09T02:48:49.678Z,99.90
2019-05-09T02:51:18.770Z,99.90
2019-05-09T02:53:48.591Z,99.90
2019-05-09T02:56:18.740Z,99.90
2019-05-09T02:59:09.667Z,99.90
2019-05-09T03:01:39.539Z,99.90
2019-05-09T03:04:08.586Z,99.90
2019-05-09T03:06:38.880Z,99.90
2019-05-09T03:09:08.867Z,99.90
2019-05-09T03:11:38.933Z,99.90
2019-05-09T03:14:09.049Z,99.90
2019-05-09T03:16:49.134Z,99.90
2019-05-09T03:19:19.807Z,99.90
2019-05-09T03:21:51.603Z,99.90
2019-05-09T03:24:20.027Z,99.90
2019-05-09T03:26:50.329Z,99.90
2019-05-09T03:29:29.204Z,99.90
2019-05-09T03:32:00.005Z,99.90
2019-05-09T03:34:30.053Z,99.90
2019-05-09T03:36:58.921Z,99.90
2019-05-09T03:39:27.722Z,99.90
2019-05-09T03:41:57.438Z,99.90
2019-05-09T03:44:28.239Z,99.90
2019-05-09T03:46:58.588Z,99.90
2019-05-09T03:49:28.395Z,99.90
2019-05-09T03:51:58.518Z,99.90
2019-05-09T03:54:28.261Z,99.90
2019-05-09T03:56:58.912Z,99.90
2019-05-09T03:59:27.868Z,99.90
2019-05-09T04:01:58.801Z,99.90
2019-05-09T04:04:28.099Z,99.90
2019-05-09T04:06:58.056Z,99.90
2019-05-09T04:09:27.460Z,99.90
2019-05-09T04:11:58.320Z,99.90
2019-05-09T04:14:31.694Z,99.90
2019-05-09T04:17:00.326Z,99.90
2019-05-09T04:19:28.739Z,99.90
2019-05-09T04:21:57.721Z,99.90
2019-05-09T04:24:28.181Z,99.90
2019-05-09T04:26:58.571Z,99.90
2019-05-09T04:29:28.627Z,99.90
2019-05-09T04:31:58.503Z,99.90
2019-05-09T04:34:27.492Z,99.90
2019-05-09T04:36:57.625Z,99.90
2019-05-09T04:39:28.276Z,99.90
2019-05-09T04:42:03.713Z,99.90
2019-05-09T04:44:37.474Z,99.90
2019-05-09T04:47:08.567Z,99.90
2019-05-09T04:49:40.933Z,99.90
2019-05-09T04:52:07.624Z,99.90
2019-05-09T04:54:38.273Z,99.90
2019-05-09T04:57:07.798Z,99.90
2019-05-09T04:59:37.378Z,99.90
2019-05-09T05:02:13.963Z,99.90
2019-05-09T05:04:42.695Z,99.90
2019-05-09T05:07:11.384Z,99.90
2019-05-09T05:09:39.901Z,99.90
2019-05-09T05:12:08.662Z,99.90
2019-05-09T05:14:38.439Z,99.90
2019-05-09T05:17:11.201Z,99.90
2019-05-09T05:19:38.331Z,99.90
2019-05-09T05:22:08.733Z,99.90
2019-05-09T05:24:39.406Z,99.90
2019-05-09T05:27:08.370Z,99.90
2019-05-09T05:29:38.342Z,99.90
2019-05-09T05:32:08.854Z,99.90
2019-05-09T05:34:38.913Z,99.90
2019-05-09T05:37:07.559Z,99.90
2019-05-09T05:39:37.492Z,99.90
2019-05-09T05:42:08.289Z,99.90
2019-05-09T05:44:38.564Z,99.90
2019-05-09T05:47:11.978Z,99.90
2019-05-09T05:49:40.433Z,99.90
2019-05-09T05:52:09.014Z,99.90
2019-05-09T05:54:38.031Z,99.90
2019-05-09T05:57:08.454Z,99.90
2019-05-09T05:59:40.591Z,99.90
2019-05-09T06:02:08.587Z,99.90
2019-05-09T06:04:38.270Z,99.90
2019-05-09T06:07:08.071Z,99.90
2019-05-09T06:09:37.959Z,99.90
2019-05-09T06:12:08.251Z,99.90
2019-05-09T06:14:37.810Z,99.90
2019-05-09T06:17:07.884Z,99.90
2019-05-09T06:19:37.890Z,99.90
2019-05-09T06:22:08.073Z,99.90
2019-05-09T06:24:38.834Z,99.80
2019-05-09T06:27:10.210Z,99.30
2019-05-09T06:29:38.646Z,99.00
2019-05-09T06:32:08.118Z,98.80
2019-05-09T06:34:41.698Z,98.50
2019-05-09T06:37:08.951Z,98.80
2019-05-09T06:39:38.009Z,98.60
2019-05-09T06:42:08.880Z,98.20
2019-05-09T06:44:38.490Z,98.40
2019-05-09T06:47:08.860Z,97.90
2019-05-09T06:49:39.037Z,96.60
2019-05-09T06:52:08.764Z,96.80
2019-05-09T06:54:41.292Z,96.90
2019-05-09T06:57:12.621Z,97.20
2019-05-09T06:59:41.266Z,96.60
2019-05-09T07:02:17.723Z,96.60
2019-05-09T07:04:48.234Z,97.10
2019-05-09T07:07:18.283Z,97.60
2019-05-09T07:09:48.353Z,97.60
2019-05-09T07:12:18.167Z,97.10
2019-05-09T07:14:48.664Z,97.20
2019-05-09T07:17:18.296Z,96.80
2019-05-09T07:19:58.906Z,96.10
2019-05-09T07:22:32.138Z,96.10
2019-05-09T07:25:11.638Z,95.50
2019-05-09T07:27:41.687Z,95.10
2019-05-09T07:30:29.016Z,95.40
2019-05-09T07:32:59.326Z,95.40
2019-05-09T07:35:27.964Z,94.50
2019-05-09T07:37:57.882Z,93.80
2019-05-09T07:40:30.745Z,93.90
2019-05-09T07:42:59.496Z,95.10
2019-05-09T07:45:28.189Z,94.20
2019-05-09T07:47:58.367Z,94.90
2019-05-09T07:50:27.759Z,96.00
2019-05-09T07:52:58.140Z,95.20
2019-05-09T07:55:27.475Z,94.90
2019-05-09T07:57:58.999Z,95.10
2019-05-09T08:00:32.727Z,94.90
2019-05-09T08:03:01.412Z,95.60
2019-05-09T08:05:30.639Z,95.60
2019-05-09T08:07:59.158Z,94.50
2019-05-09T08:10:32.283Z,94.10
2019-05-09T08:12:58.672Z,93.10
2019-05-09T08:15:28.133Z,93.40
2019-05-09T08:17:59.041Z,94.40
2019-05-09T08:20:27.699Z,94.50
2019-05-09T08:23:01.415Z,95.10
2019-05-09T08:25:27.875Z,93.90
2019-05-09T08:27:58.702Z,93.60
2019-05-09T08:30:32.941Z,94.00
2019-05-09T08:32:59.618Z,94.30
2019-05-09T08:35:29.380Z,94.60
2019-05-09T08:37:58.649Z,94.20
2019-05-09T08:40:28.459Z,93.80
2019-05-09T08:42:58.912Z,93.70
2019-05-09T08:45:30.978Z,94.00
2019-05-09T08:47:57.933Z,94.40
2019-05-09T08:50:38.995Z,94.90
2019-05-09T08:53:08.366Z,94.20
2019-05-09T08:55:38.300Z,95.50
2019-05-09T08:58:08.140Z,94.50
2019-05-09T09:00:39.217Z,94.50
2019-05-09T09:03:08.339Z,94.60
2019-05-09T09:05:38.162Z,95.30
2019-05-09T09:08:08.355Z,94.40
2019-05-09T09:10:38.557Z,94.40
2019-05-09T09:13:08.935Z,94.70
2019-05-09T09:16:02.840Z,95.00
2019-05-09T09:18:08.871Z,94.50
2019-05-09T09:20:38.109Z,93.90
2019-05-09T09:23:08.996Z,94.00
2019-05-09T09:25:39.082Z,94.00
2019-05-09T09:28:08.997Z,92.70
2019-05-09T09:30:38.901Z,92.00
2019-05-09T09:33:11.378Z,91.90
2019-05-09T09:35:38.485Z,88.80
2019-05-09T09:38:09.338Z,81.00
2019-05-09T09:40:38.503Z,79.10
2019-05-09T09:43:09.292Z,77.00
2019-05-09T09:45:38.654Z,78.80
2019-05-09T09:48:09.080Z,85.20
2019-05-09T09:50:38.281Z,90.00
2019-05-09T09:53:09.006Z,91.00
2019-05-09T09:55:38.387Z,91.20
2019-05-09T09:58:08.177Z,90.70
2019-05-09T10:00:47.617Z,91.00
2019-05-09T10:03:15.227Z,88.00
2019-05-09T10:05:43.755Z,85.30
2019-05-09T10:08:14.110Z,79.70
2019-05-09T10:10:42.515Z,80.40
2019-05-09T10:13:11.041Z,81.10
2019-05-09T10:15:41.461Z,83.30
2019-05-09T10:18:27.789Z,86.30
2019-05-09T10:21:07.234Z,90.10
2019-05-09T10:23:37.705Z,92.40
2019-05-09T10:26:08.255Z,92.70
2019-05-09T10:28:38.000Z,92.40
2019-05-09T10:31:06.719Z,92.20
2019-05-09T10:33:37.341Z,88.80
2019-05-09T10:36:08.127Z,82.80
2019-05-09T10:38:38.353Z,79.70
2019-05-09T10:41:10.956Z,78.10
2019-05-09T10:43:41.017Z,78.70
2019-05-09T10:46:39.087Z,79.40
2019-05-09T10:48:58.707Z,79.50
2019-05-09T10:51:27.487Z,82.30
2019-05-09T10:53:58.513Z,86.00
2019-05-09T10:56:28.081Z,89.70
2019-05-09T10:58:58.487Z,90.10
2019-05-09T11:01:38.845Z,90.00
2019-05-09T11:04:08.378Z,90.40
2019-05-09T11:06:38.293Z,89.70
2019-05-09T11:09:09.619Z,90.00
2019-05-09T11:11:38.680Z,90.20
2019-05-09T11:14:08.537Z,91.60
2019-05-09T11:16:44.908Z,92.00
2019-05-09T11:19:08.927Z,91.30
2019-05-09T11:21:39.102Z,90.40
2019-05-09T11:24:08.561Z,90.40
2019-05-09T11:26:39.522Z,90.40
2019-05-09T11:29:08.069Z,88.10
2019-05-09T11:31:38.754Z,84.00
2019-05-09T11:34:08.917Z,79.50
2019-05-09T11:36:38.018Z,76.60
2019-05-09T11:39:10.696Z,73.60
2019-05-09T11:41:38.659Z,73.80
2019-05-09T11:44:08.501Z,78.10
2019-05-09T11:46:52.499Z,81.00
2019-05-09T11:49:20.819Z,82.30
2019-05-09T11:51:49.271Z,83.00
2019-05-09T11:54:19.894Z,83.90
2019-05-09T11:56:48.400Z,85.90
2019-05-09T11:59:18.868Z,87.70
2019-05-09T12:01:48.363Z,87.80
2019-05-09T12:04:18.779Z,86.40
2019-05-09T12:06:49.307Z,85.20
2019-05-09T12:09:17.866Z,86.40
2019-05-09T12:11:48.467Z,86.20
2019-05-09T12:14:16.965Z,86.20
2019-05-09T12:16:48.045Z,86.60
2019-05-09T12:19:17.982Z,85.10
2019-05-09T12:21:48.102Z,84.20
2019-05-09T12:24:18.386Z,81.40
2019-05-09T12:26:48.200Z,81.30
2019-05-09T12:29:19.295Z,84.50
2019-05-09T12:31:48.656Z,86.00
2019-05-09T12:34:19.392Z,88.90
2019-05-09T12:36:49.534Z,88.00
2019-05-09T12:39:18.741Z,89.10
2019-05-09T12:41:48.386Z,86.80
2019-05-09T12:44:18.208Z,88.20
2019-05-09T12:46:48.791Z,88.10
2019-05-09T12:49:18.959Z,88.60
2019-05-09T12:51:47.607Z,90.90
2019-05-09T12:54:18.798Z,89.00
2019-05-09T12:56:48.545Z,89.80
2019-05-09T12:59:18.710Z,90.80
2019-05-09T13:01:49.167Z,90.10
2019-05-09T13:04:18.066Z,87.20
2019-05-09T13:06:48.831Z,89.20
2019-05-09T13:09:17.809Z,87.70
2019-05-09T13:11:48.221Z,86.00
2019-05-09T13:14:19.387Z,86.40
2019-05-09T13:19:38.209Z,88.00
2019-05-09T13:22:08.125Z,87.60
2019-05-09T13:24:37.863Z,88.80
2019-05-09T13:27:07.935Z,88.90
2019-05-09T13:29:38.095Z,89.50
2019-05-09T13:32:08.762Z,89.20
2019-05-09T13:34:38.149Z,88.80
2019-05-09T13:37:09.032Z,89.00
2019-05-09T13:39:39.466Z,89.80
2019-05-09T13:42:08.297Z,88.90
2019-05-09T13:44:41.318Z,87.10
2019-05-09T13:47:10.644Z,85.30
2019-05-09T13:49:39.615Z,85.00
2019-05-09T13:52:10.209Z,84.40
2019-05-09T13:54:38.359Z,84.80
2019-05-09T13:57:08.710Z,80.40
2019-05-09T13:59:37.523Z,81.60
2019-05-09T14:02:06.109Z,82.50
2019-05-09T14:04:34.881Z,82.70
2019-05-09T14:07:03.301Z,81.30
2019-05-09T14:09:31.772Z,81.30
2019-05-09T14:12:00.546Z,81.00
2019-05-09T14:14:28.956Z,83.50
2019-05-09T14:16:59.273Z,82.10
2019-05-09T14:19:39.718Z,84.40
2019-05-09T14:21:58.753Z,84.60
2019-05-09T14:24:28.039Z,85.60
2019-05-09T14:26:58.181Z,87.80
2019-05-09T14:29:31.388Z,88.50
2019-05-09T14:31:57.025Z,88.90
2019-05-09T14:34:25.883Z,88.50
2019-05-09T14:36:54.827Z,89.80
2019-05-09T14:39:23.930Z,90.00
2019-05-09T14:41:52.653Z,90.10
2019-05-09T14:44:21.146Z,90.00
2019-05-09T14:46:49.566Z,89.90
2019-05-09T14:49:18.596Z,89.60
2019-05-09T14:51:49.743Z,88.90
2019-05-09T14:54:17.533Z,90.50
2019-05-09T14:56:48.554Z,90.00
2019-05-09T14:59:18.620Z,90.00
2019-05-09T15:01:49.644Z,87.10
2019-05-09T15:04:18.953Z,86.50
2019-05-09T15:06:48.785Z,86.50
2019-05-09T15:09:18.307Z,87.50
2019-05-09T15:11:50.935Z,85.60
2019-05-09T15:14:24.438Z,85.30
2019-05-09T15:16:52.924Z,84.80
2019-05-09T15:19:21.335Z,85.10
2019-05-09T15:21:50.168Z,85.70
2019-05-09T15:24:19.438Z,84.40
2019-05-09T15:26:48.300Z,83.00
2019-05-09T15:29:17.896Z,82.90
2019-05-09T15:31:53.089Z,83.80
2019-05-09T15:34:18.583Z,83.90
2019-05-09T15:36:48.403Z,85.10
2019-05-09T15:39:18.381Z,85.50
2019-05-09T15:41:47.901Z,86.50
2019-05-09T15:44:18.689Z,86.90
2019-05-09T15:46:51.699Z,87.80
2019-05-09T15:49:21.096Z,85.70
2019-05-09T15:51:49.534Z,86.60
2019-05-09T15:54:18.190Z,88.30
2019-05-09T15:56:48.461Z,87.70
2019-05-09T15:59:18.417Z,88.80
2019-05-09T16:01:49.959Z,88.70
2019-05-09T16:04:18.432Z,88.20
2019-05-09T16:06:50.285Z,87.50
2019-05-09T16:09:18.182Z,87.00
2019-05-09T16:11:48.405Z,86.20
2019-05-09T16:14:18.406Z,87.40
2019-05-09T16:16:48.620Z,86.00
2019-05-09T16:19:17.208Z,85.70
2019-05-09T16:21:47.759Z,85.90
2019-05-09T16:24:18.995Z,86.10
2019-05-09T16:26:48.844Z,86.80
2019-05-09T16:29:18.008Z,86.60
2019-05-09T16:31:48.217Z,88.00
2019-05-09T16:34:17.853Z,88.50
2019-05-09T16:36:48.054Z,88.40
2019-05-09T16:39:18.802Z,88.00
2019-05-09T16:41:48.450Z,88.70
2019-05-09T16:44:18.265Z,88.30
2019-05-09T16:46:49.152Z,88.90
2019-05-09T16:49:20.043Z,88.20
2019-05-09T16:51:48.537Z,87.80
2019-05-09T16:54:19.910Z,88.20
2019-05-09T16:56:48.399Z,88.20
2019-05-09T16:59:17.914Z,88.50
2019-05-09T17:01:50.297Z,88.40
2019-05-09T17:04:19.132Z,88.60
2019-05-09T17:06:49.790Z,87.40
2019-05-09T17:09:20.641Z,86.80
2019-05-09T17:11:49.171Z,86.50
2019-05-09T17:14:19.309Z,86.50
2019-05-09T17:16:52.127Z,86.90
2019-05-09T17:19:19.580Z,87.00
2019-05-09T17:21:53.623Z,87.80
2019-05-09T17:24:23.575Z,88.00
2019-05-09T17:26:52.285Z,89.60
2019-05-09T17:29:22.033Z,90.30
2019-05-09T17:31:50.617Z,91.00
2019-05-09T17:34:19.106Z,91.20
2019-05-09T17:36:47.761Z,91.80
2019-05-09T17:39:18.515Z,92.80
2019-05-09T17:41:46.499Z,92.50
2019-05-09T17:44:15.251Z,92.70
2019-05-09T17:46:43.738Z,93.00
2019-05-09T17:49:12.381Z,92.90
2019-05-09T17:51:43.127Z,93.20
2019-05-09T17:54:11.670Z,93.10
2019-05-09T17:56:40.372Z,93.20
2019-05-09T17:59:09.312Z,93.30
2019-05-09T18:01:37.964Z,93.10
2019-05-09T18:04:08.873Z,93.40
2019-05-09T18:06:37.902Z,93.20
2019-05-09T18:09:08.480Z,93.10
2019-05-09T18:11:37.964Z,93.50
2019-05-09T18:14:08.051Z,93.20
2019-05-09T18:16:38.924Z,92.70
2019-05-09T18:19:13.012Z,92.60
2019-05-09T18:21:50.558Z,92.00
2019-05-09T18:24:14.224Z,92.00
2019-05-09T18:26:42.953Z,92.00
2019-05-09T18:29:11.387Z,91.70
2019-05-09T18:31:41.878Z,91.80
2019-05-09T18:34:10.380Z,92.60
2019-05-09T18:36:38.992Z,94.80
2019-05-09T18:39:08.072Z,98.00
2019-05-09T18:41:36.649Z,99.90
2019-05-09T18:44:07.352Z,99.90
2019-05-09T18:46:35.882Z,99.90
2019-05-09T18:49:04.392Z,99.90
2019-05-09T18:51:32.936Z,99.90
2019-05-09T18:54:01.743Z,99.90
2019-05-09T18:56:30.333Z,99.90
2019-05-09T18:58:58.768Z,99.90
2019-05-09T19:01:27.694Z,99.90
2019-05-09T19:03:56.242Z,99.90
2019-05-09T19:06:24.708Z,99.90
2019-05-09T19:08:53.335Z,99.90
2019-05-09T19:11:21.795Z,99.90
2019-05-09T19:13:50.299Z,99.90
2019-05-09T19:16:30.582Z,99.90
2019-05-09T19:19:06.689Z,99.90
2019-05-09T19:21:37.505Z,99.90
2019-05-09T19:24:05.987Z,99.90
2019-05-09T19:26:38.534Z,99.90
2019-05-09T19:29:08.487Z,99.90
2019-05-09T19:31:38.152Z,99.90
2019-05-09T19:34:07.660Z,99.90
2019-05-09T19:36:36.744Z,99.90
2019-05-09T19:39:10.457Z,99.90
2019-05-09T19:41:39.607Z,99.90
2019-05-09T19:44:08.279Z,99.90
2019-05-09T19:46:37.584Z,99.90
2019-05-09T19:49:06.202Z,99.90
2019-05-09T19:51:34.788Z,99.90
2019-05-09T19:54:03.617Z,99.90
2019-05-09T19:56:32.134Z,99.90
2019-05-09T19:59:00.559Z,99.90
2019-05-09T20:01:29.283Z,99.90
2019-05-09T20:03:57.913Z,99.90
2019-05-09T20:06:26.359Z,99.90
2019-05-09T20:08:55.008Z,99.90
2019-05-09T20:11:28.468Z,99.90
2019-05-09T20:13:58.787Z,99.90
2019-05-09T20:16:45.930Z,99.90
2019-05-09T20:19:14.655Z,99.90
2019-05-09T20:21:43.124Z,99.90
2019-05-09T20:24:11.677Z,99.90
2019-05-09T20:26:40.741Z,99.90
2019-05-09T20:29:09.316Z,99.90
2019-05-09T20:31:37.943Z,99.90
2019-05-09T20:34:06.915Z,99.90
2019-05-09T20:36:35.471Z,99.90
2019-05-09T20:39:06.255Z,99.90
2019-05-09T20:41:35.133Z,99.90
2019-05-09T20:44:04.018Z,99.90
2019-05-09T20:46:32.739Z,99.90
2019-05-09T20:49:02.691Z,99.90
2019-05-09T20:51:31.498Z,99.90
2019-05-09T20:54:00.166Z,99.90
2019-05-09T20:56:29.280Z,99.90
2019-05-09T20:58:57.906Z,99.90
2019-05-09T21:01:26.579Z,99.90
2019-05-09T21:04:00.395Z,99.90
2019-05-09T21:06:26.582Z,99.90
2019-05-09T21:08:55.373Z,99.90
2019-05-09T21:11:24.250Z,99.90
2019-05-09T21:13:53.885Z,99.90
2019-05-09T21:16:22.549Z,99.90
2019-05-09T21:18:51.661Z,99.90
2019-05-09T21:21:20.258Z,99.90
2019-05-09T21:23:49.087Z,99.90
2019-05-09T21:26:18.096Z,99.90
2019-05-09T21:28:46.783Z,99.90
2019-05-09T21:31:25.418Z,99.90
2019-05-09T21:33:54.102Z,99.90
2019-05-09T21:36:22.520Z,99.90
2019-05-09T21:38:51.366Z,99.90
2019-05-09T21:41:20.236Z,99.90
2019-05-09T21:43:48.732Z,99.90
2019-05-09T21:46:17.334Z,99.90
2019-05-09T21:48:45.839Z,99.90
2019-05-09T21:51:14.365Z,99.90
2019-05-09T21:53:43.185Z,99.90
2019-05-09T21:56:11.675Z,99.90
2019-05-09T21:58:40.127Z,99.90
2019-05-09T22:01:11.933Z,99.90
2019-05-09T22:03:40.363Z,99.90
2019-05-09T22:06:08.878Z,99.90
2019-05-09T22:08:37.777Z,99.90
2019-05-09T22:11:06.395Z,99.90
2019-05-09T22:13:34.844Z,99.90
2019-05-09T22:16:03.709Z,99.90
2019-05-09T22:18:32.163Z,99.90
2019-05-09T22:21:00.662Z,99.90
2019-05-09T22:23:29.445Z,99.90
2019-05-09T22:25:57.891Z,99.90
2019-05-09T22:28:26.409Z,99.90
2019-05-09T22:30:55.399Z,99.90
2019-05-09T22:33:23.846Z,99.90
2019-05-09T22:35:52.379Z,99.90
2019-05-09T22:38:21.279Z,99.90
2019-05-09T22:40:49.704Z,99.90
2019-05-09T22:43:18.196Z,99.90
2019-05-09T22:45:47.011Z,99.90
2019-05-09T22:48:15.478Z,99.90
2019-05-09T22:50:46.599Z,99.90
2019-05-09T22:53:15.328Z,99.90
2019-05-09T22:55:44.096Z,99.90
2019-05-09T22:58:12.535Z,99.90
2019-05-09T23:00:41.386Z,99.90
2019-05-09T23:03:09.816Z,99.90
2019-05-09T23:05:38.233Z,99.90
2019-05-09T23:08:07.111Z,99.90
2019-05-09T23:10:35.558Z,99.90
2019-05-09T23:13:04.067Z,99.90
2019-05-09T23:15:32.784Z,99.90
2019-05-09T23:18:01.310Z,99.90
2019-05-09T23:20:43.392Z,99.90
2019-05-09T23:23:22.401Z,99.90
2019-05-09T23:25:51.514Z,99.90
2019-05-09T23:28:19.988Z,99.90
2019-05-09T23:30:52.295Z,99.90
2019-05-09T23:33:21.451Z,99.90
2019-05-09T23:35:49.917Z,99.90
2019-05-09T23:38:19.578Z,99.90
2019-05-09T23:40:48.104Z,99.90
2019-05-09T23:43:16.518Z,99.90
2019-05-09T23:45:50.449Z,99.90
2019-05-09T23:48:18.927Z,99.90
2019-05-09T23:50:47.341Z,99.90
2019-05-09T23:53:21.699Z,99.90
2019-05-09T23:56:07.846Z,99.90
2019-05-09T23:58:55.460Z,99.90
